RYR51AD LEPA-EDDK
Flight info
| Callsign | RYR51AD |
|---|---|
| Flight time | 1h 54m |
| Altitude | 36000 |
| Route | GALAT N861 OLOXO DCT OKABI DCT TOU DCT ADABI DCT BOKNO DCT DIBES DCT VIQAQ DCT TSU UN858 OQQAL DCT RANUX/N0444F370 DCT VALEK DCT LUTAX UM163 DIK/N0430F290 N853 ARCKY T853 IBESA T860 ERUKI T856 DEPOK |
| Aircraft | A320/M-SDE3FGHIRWY/LB1 |
Departure
| Time | 2026-04-23 12:43 |
|---|---|
| Airport | Palma de Mallorca Airport (LEPA) |
Arrival
| Time | 2026-04-23 14:37 |
|---|---|
| Airport | Cologne Bonn Airport (EDDK) |
| Time | Latitude | Longitude | Altitude | Speed | Heading |
|---|---|---|---|---|---|
| 2026-04-23 12:12 | 39.54757 | 2.73632 | 37 ft | 0 kts | 58° |
| 2026-04-23 12:33 | 39.54748 | 2.73612 | 36 ft | 4 kts | 58° |
| 2026-04-23 12:34 | 39.54737 | 2.73588 | 38 ft | 4 kts | 75° |
| 2026-04-23 12:34 | 39.54739 | 2.73559 | 37 ft | 4 kts | 133° |
| 2026-04-23 12:34 | 39.54759 | 2.73539 | 37 ft | 4 kts | 149° |
| 2026-04-23 12:34 | 39.54772 | 2.73530 | 36 ft | 0 kts | 149° |
| 2026-04-23 12:38 | 39.54770 | 2.73531 | 9 ft | 3 kts | 149° |
| 2026-04-23 12:39 | 39.54699 | 2.73586 | 38 ft | 18 kts | 149° |
| 2026-04-23 12:39 | 39.54583 | 2.73636 | 37 ft | 17 kts | 183° |
| 2026-04-23 12:39 | 39.54510 | 2.73537 | 38 ft | 15 kts | 238° |
| 2026-04-23 12:39 | 39.54459 | 2.73427 | 38 ft | 14 kts | 238° |
| 2026-04-23 12:40 | 39.54402 | 2.73308 | 38 ft | 18 kts | 239° |
| 2026-04-23 12:40 | 39.54327 | 2.73145 | 38 ft | 24 kts | 242° |
| 2026-04-23 12:40 | 39.54237 | 2.72954 | 37 ft | 19 kts | 244° |
| 2026-04-23 12:40 | 39.54151 | 2.72933 | 38 ft | 11 kts | 131° |
| 2026-04-23 12:41 | 39.54145 | 2.72977 | 38 ft | 0 kts | 81° |
| 2026-04-23 12:41 | 39.54149 | 2.73012 | 37 ft | 11 kts | 83° |
| 2026-04-23 12:41 | 39.54148 | 2.73156 | 38 ft | 19 kts | 96° |
| 2026-04-23 12:42 | 39.54194 | 2.73312 | 38 ft | 19 kts | 58° |
| 2026-04-23 12:42 | 39.54263 | 2.73460 | 38 ft | 19 kts | 59° |
| 2026-04-23 12:42 | 39.54375 | 2.73693 | 38 ft | 59 kts | 58° |
| 2026-04-23 12:42 | 39.54706 | 2.74392 | 38 ft | 122 kts | 58° |
| 2026-04-23 12:43 | 39.55230 | 2.75494 | 286 ft | 146 kts | 59° |
| 2026-04-23 12:43 | 39.55746 | 2.76576 | 1075 ft | 139 kts | 60° |
| 2026-04-23 12:43 | 39.56269 | 2.77703 | 1455 ft | 157 kts | 60° |
| 2026-04-23 12:43 | 39.56854 | 2.78973 | 1907 ft | 170 kts | 61° |
| 2026-04-23 12:44 | 39.57496 | 2.80391 | 2300 ft | 193 kts | 62° |
| 2026-04-23 12:44 | 39.58220 | 2.81964 | 2773 ft | 212 kts | 61° |
| 2026-04-23 12:44 | 39.58966 | 2.83578 | 3686 ft | 205 kts | 61° |
| 2026-04-23 12:44 | 39.59701 | 2.85204 | 4414 ft | 213 kts | 60° |
| 2026-04-23 12:45 | 39.60463 | 2.86904 | 5018 ft | 222 kts | 60° |
| 2026-04-23 12:45 | 39.61253 | 2.88665 | 5640 ft | 229 kts | 59° |
| 2026-04-23 12:45 | 39.62288 | 2.90249 | 6316 ft | 235 kts | 31° |
| 2026-04-23 12:45 | 39.63827 | 2.90891 | 6936 ft | 235 kts | 356° |
| 2026-04-23 12:46 | 39.65370 | 2.90345 | 7644 ft | 230 kts | 324° |
| 2026-04-23 12:46 | 39.66439 | 2.88876 | 8386 ft | 224 kts | 295° |
| 2026-04-23 12:46 | 39.67029 | 2.87012 | 9167 ft | 224 kts | 288° |
| 2026-04-23 12:46 | 39.67511 | 2.85090 | 9964 ft | 224 kts | 285° |
| 2026-04-23 12:47 | 39.67905 | 2.83132 | 10700 ft | 225 kts | 283° |
| 2026-04-23 12:47 | 39.68211 | 2.81137 | 11380 ft | 227 kts | 279° |
| 2026-04-23 12:47 | 39.68421 | 2.79093 | 12067 ft | 230 kts | 276° |
| 2026-04-23 12:47 | 39.68531 | 2.77046 | 12768 ft | 232 kts | 275° |
| 2026-04-23 12:48 | 39.68745 | 2.74966 | 13438 ft | 234 kts | 282° |
| 2026-04-23 12:48 | 39.69196 | 2.72841 | 13698 ft | 256 kts | 290° |
| 2026-04-23 12:48 | 39.69944 | 2.70635 | 13891 ft | 279 kts | 300° |
| 2026-04-23 12:48 | 39.71315 | 2.68724 | 14055 ft | 305 kts | 325° |
| 2026-04-23 12:49 | 39.73369 | 2.67673 | 14185 ft | 331 kts | 342° |
| 2026-04-23 12:49 | 39.75649 | 2.66905 | 14535 ft | 343 kts | 343° |
| 2026-04-23 12:49 | 39.77987 | 2.66165 | 15138 ft | 348 kts | 343° |
| 2026-04-23 12:49 | 39.80352 | 2.65428 | 15773 ft | 351 kts | 343° |
| 2026-04-23 12:50 | 39.82731 | 2.64681 | 16434 ft | 353 kts | 343° |
| 2026-04-23 12:50 | 39.85120 | 2.63924 | 17086 ft | 354 kts | 343° |
| 2026-04-23 12:50 | 39.87521 | 2.63149 | 17740 ft | 356 kts | 343° |
| 2026-04-23 12:50 | 39.89933 | 2.62361 | 18393 ft | 359 kts | 343° |
| 2026-04-23 12:51 | 39.92362 | 2.61566 | 18943 ft | 361 kts | 343° |
| 2026-04-23 12:51 | 39.94803 | 2.60764 | 19498 ft | 363 kts | 343° |
| 2026-04-23 12:51 | 39.97260 | 2.59957 | 20039 ft | 366 kts | 343° |
| 2026-04-23 12:51 | 39.99738 | 2.59141 | 20577 ft | 368 kts | 343° |
| 2026-04-23 12:52 | 40.02230 | 2.58321 | 21140 ft | 371 kts | 343° |
| 2026-04-23 12:52 | 40.04740 | 2.57498 | 21674 ft | 373 kts | 343° |
| 2026-04-23 12:52 | 40.07268 | 2.56667 | 22213 ft | 376 kts | 343° |
| 2026-04-23 12:52 | 40.09810 | 2.55830 | 22733 ft | 378 kts | 343° |
| 2026-04-23 12:53 | 40.12370 | 2.54988 | 23237 ft | 381 kts | 343° |
| 2026-04-23 12:53 | 40.14944 | 2.54141 | 23726 ft | 383 kts | 343° |
| 2026-04-23 12:53 | 40.17539 | 2.53286 | 24131 ft | 385 kts | 343° |
| 2026-04-23 12:53 | 40.20145 | 2.52428 | 24535 ft | 388 kts | 343° |
| 2026-04-23 12:54 | 40.22766 | 2.51562 | 24942 ft | 389 kts | 343° |
| 2026-04-23 12:54 | 40.25397 | 2.50693 | 25358 ft | 390 kts | 343° |
| 2026-04-23 12:54 | 40.28032 | 2.49821 | 25750 ft | 392 kts | 343° |
| 2026-04-23 12:54 | 40.30684 | 2.48943 | 26119 ft | 393 kts | 343° |
| 2026-04-23 12:55 | 40.33343 | 2.48060 | 26486 ft | 395 kts | 343° |
| 2026-04-23 12:55 | 40.36015 | 2.47173 | 26846 ft | 397 kts | 343° |
| 2026-04-23 12:55 | 40.38698 | 2.46283 | 27201 ft | 399 kts | 343° |
| 2026-04-23 12:55 | 40.41397 | 2.45393 | 27548 ft | 401 kts | 343° |
| 2026-04-23 12:56 | 40.44106 | 2.44497 | 27886 ft | 403 kts | 343° |
| 2026-04-23 12:56 | 40.46794 | 2.43606 | 28237 ft | 404 kts | 343° |
| 2026-04-23 12:56 | 40.49527 | 2.42694 | 28573 ft | 406 kts | 343° |
| 2026-04-23 12:56 | 40.52267 | 2.41773 | 28892 ft | 408 kts | 343° |
| 2026-04-23 12:57 | 40.55021 | 2.40848 | 29207 ft | 409 kts | 343° |
| 2026-04-23 12:57 | 40.57788 | 2.39923 | 29504 ft | 411 kts | 343° |
| 2026-04-23 12:57 | 40.60568 | 2.38995 | 29794 ft | 413 kts | 343° |
| 2026-04-23 12:57 | 40.63357 | 2.38066 | 30079 ft | 415 kts | 343° |
| 2026-04-23 12:58 | 40.66161 | 2.37131 | 30317 ft | 416 kts | 343° |
| 2026-04-23 12:58 | 40.68974 | 2.36190 | 30544 ft | 418 kts | 343° |
| 2026-04-23 12:58 | 40.71799 | 2.35242 | 30758 ft | 420 kts | 343° |
| 2026-04-23 12:58 | 40.74632 | 2.34290 | 30960 ft | 421 kts | 343° |
| 2026-04-23 12:59 | 40.77475 | 2.33335 | 31183 ft | 422 kts | 343° |
| 2026-04-23 12:59 | 40.80321 | 2.32377 | 31470 ft | 421 kts | 343° |
| 2026-04-23 12:59 | 40.83161 | 2.31423 | 31739 ft | 421 kts | 343° |
| 2026-04-23 12:59 | 40.86000 | 2.30471 | 32006 ft | 421 kts | 343° |
| 2026-04-23 13:00 | 40.88838 | 2.29518 | 32288 ft | 421 kts | 342° |
| 2026-04-23 13:00 | 40.91676 | 2.28561 | 32534 ft | 421 kts | 342° |
| 2026-04-23 13:00 | 40.94520 | 2.27595 | 32745 ft | 423 kts | 342° |
| 2026-04-23 13:00 | 40.97371 | 2.26626 | 32993 ft | 423 kts | 342° |
| 2026-04-23 13:01 | 41.00221 | 2.25662 | 33255 ft | 423 kts | 342° |
| 2026-04-23 13:01 | 41.03075 | 2.24699 | 33520 ft | 423 kts | 342° |
| 2026-04-23 13:01 | 41.05930 | 2.23734 | 33782 ft | 423 kts | 342° |
| 2026-04-23 13:01 | 41.08781 | 2.22765 | 34062 ft | 423 kts | 342° |
| 2026-04-23 13:02 | 41.11630 | 2.21797 | 34323 ft | 423 kts | 342° |
| 2026-04-23 13:02 | 41.14477 | 2.20830 | 34579 ft | 422 kts | 342° |
| 2026-04-23 13:02 | 41.17315 | 2.19863 | 34830 ft | 421 kts | 342° |
| 2026-04-23 13:02 | 41.20153 | 2.18898 | 35070 ft | 421 kts | 342° |
| 2026-04-23 13:03 | 41.22989 | 2.17936 | 35301 ft | 420 kts | 342° |
| 2026-04-23 13:03 | 41.25819 | 2.16979 | 35519 ft | 420 kts | 342° |
| 2026-04-23 13:03 | 41.28647 | 2.16020 | 35733 ft | 419 kts | 342° |
| 2026-04-23 13:03 | 41.31469 | 2.15058 | 35940 ft | 419 kts | 342° |
| 2026-04-23 13:04 | 41.34291 | 2.14090 | 36145 ft | 418 kts | 342° |
| 2026-04-23 13:04 | 41.37071 | 2.13135 | 36213 ft | 418 kts | 342° |
| 2026-04-23 13:04 | 41.42680 | 2.11205 | 36219 ft | 416 kts | 342° |
| 2026-04-23 13:05 | 41.48282 | 2.09279 | 36216 ft | 416 kts | 342° |
| 2026-04-23 13:05 | 41.53879 | 2.07352 | 36219 ft | 416 kts | 342° |
| 2026-04-23 13:06 | 41.59518 | 2.05622 | 36219 ft | 419 kts | 353° |
| 2026-04-23 13:06 | 41.62441 | 2.05871 | 36216 ft | 427 kts | 9° |
| 2026-04-23 13:07 | 41.68157 | 2.08189 | 36211 ft | 430 kts | 13° |
| 2026-04-23 13:07 | 41.73868 | 2.10638 | 36205 ft | 431 kts | 13° |
| 2026-04-23 13:08 | 41.79579 | 2.13100 | 36216 ft | 431 kts | 13° |
| 2026-04-23 13:08 | 41.85295 | 2.15540 | 36220 ft | 431 kts | 13° |
| 2026-04-23 13:09 | 41.91010 | 2.17980 | 36219 ft | 431 kts | 13° |
| 2026-04-23 13:09 | 41.96719 | 2.20430 | 36237 ft | 431 kts | 13° |
| 2026-04-23 13:10 | 42.02426 | 2.22884 | 36238 ft | 430 kts | 13° |
| 2026-04-23 13:10 | 42.08123 | 2.25333 | 36238 ft | 430 kts | 13° |
| 2026-04-23 13:11 | 42.13818 | 2.27789 | 36238 ft | 430 kts | 13° |
| 2026-04-23 13:11 | 42.18547 | 2.29826 | 36263 ft | 429 kts | 13° |
| 2026-04-23 13:12 | 42.24224 | 2.32280 | 36261 ft | 428 kts | 13° |
| 2026-04-23 13:12 | 42.30798 | 2.35133 | 36251 ft | 427 kts | 13° |
| 2026-04-23 13:13 | 42.35533 | 2.37193 | 36237 ft | 426 kts | 13° |
| 2026-04-23 13:13 | 42.41179 | 2.39646 | 36245 ft | 426 kts | 13° |
| 2026-04-23 13:14 | 42.46773 | 2.42079 | 36229 ft | 425 kts | 13° |
| 2026-04-23 13:14 | 42.52447 | 2.44553 | 36239 ft | 425 kts | 13° |
| 2026-04-23 13:15 | 42.58079 | 2.47012 | 36239 ft | 425 kts | 13° |
| 2026-04-23 13:15 | 42.63663 | 2.49466 | 36232 ft | 425 kts | 13° |
| 2026-04-23 13:16 | 42.69282 | 2.51934 | 36225 ft | 424 kts | 13° |
| 2026-04-23 13:16 | 42.74900 | 2.54399 | 36225 ft | 424 kts | 13° |
| 2026-04-23 13:17 | 42.80516 | 2.56874 | 36227 ft | 424 kts | 13° |
| 2026-04-23 13:17 | 42.86131 | 2.59364 | 36220 ft | 424 kts | 13° |
| 2026-04-23 13:18 | 42.91747 | 2.61844 | 36230 ft | 424 kts | 13° |
| 2026-04-23 13:18 | 42.97357 | 2.64326 | 36229 ft | 424 kts | 13° |
| 2026-04-23 13:19 | 43.02968 | 2.66822 | 36242 ft | 424 kts | 13° |
| 2026-04-23 13:19 | 43.08570 | 2.69320 | 36258 ft | 423 kts | 13° |
| 2026-04-23 13:20 | 43.14167 | 2.71812 | 36250 ft | 423 kts | 13° |
| 2026-04-23 13:20 | 43.19757 | 2.74306 | 36259 ft | 422 kts | 13° |
| 2026-04-23 13:21 | 43.25337 | 2.76807 | 36267 ft | 422 kts | 13° |
| 2026-04-23 13:21 | 43.30915 | 2.79311 | 36260 ft | 422 kts | 13° |
| 2026-04-23 13:22 | 43.36491 | 2.81808 | 36257 ft | 421 kts | 13° |
| 2026-04-23 13:22 | 43.42062 | 2.84316 | 36260 ft | 421 kts | 13° |
| 2026-04-23 13:23 | 43.47623 | 2.86837 | 36253 ft | 421 kts | 13° |
| 2026-04-23 13:23 | 43.53185 | 2.89347 | 36250 ft | 420 kts | 13° |
| 2026-04-23 13:24 | 43.58741 | 2.91857 | 36267 ft | 420 kts | 13° |
| 2026-04-23 13:24 | 43.64257 | 2.94365 | 36261 ft | 420 kts | 13° |
| 2026-04-23 13:25 | 43.69807 | 2.96888 | 36252 ft | 420 kts | 13° |
| 2026-04-23 13:25 | 43.75356 | 2.99412 | 36250 ft | 420 kts | 13° |
| 2026-04-23 13:26 | 43.80902 | 3.01951 | 36250 ft | 420 kts | 13° |
| 2026-04-23 13:26 | 43.86449 | 3.04488 | 36251 ft | 420 kts | 13° |
| 2026-04-23 13:27 | 43.91993 | 3.07026 | 36283 ft | 419 kts | 13° |
| 2026-04-23 13:27 | 43.97526 | 3.09568 | 36277 ft | 419 kts | 13° |
| 2026-04-23 13:28 | 44.03049 | 3.12110 | 36286 ft | 418 kts | 13° |
| 2026-04-23 13:28 | 44.08564 | 3.14651 | 36282 ft | 417 kts | 13° |
| 2026-04-23 13:29 | 44.14072 | 3.17195 | 36272 ft | 417 kts | 13° |
| 2026-04-23 13:29 | 44.19574 | 3.19737 | 36273 ft | 417 kts | 13° |
| 2026-04-23 13:30 | 44.25071 | 3.22293 | 36276 ft | 416 kts | 13° |
| 2026-04-23 13:30 | 44.30568 | 3.24844 | 36277 ft | 416 kts | 13° |
| 2026-04-23 13:31 | 44.36065 | 3.27396 | 36271 ft | 416 kts | 13° |
| 2026-04-23 13:31 | 44.41556 | 3.29954 | 36271 ft | 416 kts | 13° |
| 2026-04-23 13:32 | 44.47052 | 3.32524 | 36264 ft | 416 kts | 13° |
| 2026-04-23 13:32 | 44.52543 | 3.35091 | 36263 ft | 416 kts | 13° |
| 2026-04-23 13:33 | 44.58035 | 3.37670 | 36275 ft | 416 kts | 13° |
| 2026-04-23 13:33 | 44.63525 | 3.40254 | 36269 ft | 416 kts | 13° |
| 2026-04-23 13:34 | 44.69015 | 3.42840 | 36261 ft | 416 kts | 13° |
| 2026-04-23 13:34 | 44.74506 | 3.45432 | 36250 ft | 416 kts | 13° |
| 2026-04-23 13:35 | 44.79997 | 3.48031 | 36244 ft | 416 kts | 13° |
| 2026-04-23 13:35 | 44.85487 | 3.50633 | 36237 ft | 416 kts | 13° |
| 2026-04-23 13:36 | 44.90943 | 3.53221 | 36235 ft | 416 kts | 13° |
| 2026-04-23 13:36 | 44.96435 | 3.55834 | 36242 ft | 416 kts | 13° |
| 2026-04-23 13:37 | 45.01926 | 3.58452 | 36232 ft | 417 kts | 13° |
| 2026-04-23 13:37 | 45.07416 | 3.61078 | 36226 ft | 417 kts | 13° |
| 2026-04-23 13:38 | 45.12907 | 3.63710 | 36217 ft | 417 kts | 13° |
| 2026-04-23 13:38 | 45.18408 | 3.66345 | 36231 ft | 417 kts | 14° |
| 2026-04-23 13:39 | 45.23911 | 3.68984 | 36220 ft | 418 kts | 14° |
| 2026-04-23 13:39 | 45.29413 | 3.71633 | 36214 ft | 418 kts | 14° |
| 2026-04-23 13:40 | 45.34922 | 3.74292 | 36230 ft | 418 kts | 14° |
| 2026-04-23 13:40 | 45.40438 | 3.76963 | 36225 ft | 419 kts | 14° |
| 2026-04-23 13:41 | 45.45961 | 3.79638 | 36216 ft | 419 kts | 14° |
| 2026-04-23 13:41 | 45.51487 | 3.82323 | 36221 ft | 420 kts | 14° |
| 2026-04-23 13:42 | 45.57010 | 3.85015 | 36223 ft | 420 kts | 14° |
| 2026-04-23 13:42 | 45.62540 | 3.87715 | 36222 ft | 420 kts | 14° |
| 2026-04-23 13:43 | 45.68076 | 3.90417 | 36233 ft | 421 kts | 14° |
| 2026-04-23 13:43 | 45.73617 | 3.93125 | 36246 ft | 422 kts | 15° |
| 2026-04-23 13:44 | 45.79182 | 3.95852 | 36235 ft | 423 kts | 15° |
| 2026-04-23 13:44 | 45.84756 | 3.98600 | 36232 ft | 424 kts | 15° |
| 2026-04-23 13:45 | 45.89397 | 4.00884 | 36233 ft | 425 kts | 15° |
| 2026-04-23 13:45 | 45.95941 | 4.04110 | 36224 ft | 426 kts | 16° |
| 2026-04-23 13:46 | 46.01556 | 4.06886 | 36217 ft | 427 kts | 16° |
| 2026-04-23 13:46 | 46.07175 | 4.09684 | 36220 ft | 428 kts | 16° |
| 2026-04-23 13:47 | 46.12806 | 4.12477 | 36222 ft | 429 kts | 17° |
| 2026-04-23 13:47 | 46.18455 | 4.15290 | 36228 ft | 430 kts | 17° |
| 2026-04-23 13:48 | 46.24110 | 4.18116 | 36228 ft | 430 kts | 17° |
| 2026-04-23 13:48 | 46.29773 | 4.20954 | 36232 ft | 431 kts | 18° |
| 2026-04-23 13:49 | 46.35455 | 4.23793 | 36213 ft | 433 kts | 18° |
| 2026-04-23 13:49 | 46.41118 | 4.26632 | 36224 ft | 434 kts | 18° |
| 2026-04-23 13:50 | 46.46837 | 4.29518 | 36224 ft | 435 kts | 18° |
| 2026-04-23 13:50 | 46.52561 | 4.32411 | 36229 ft | 436 kts | 19° |
| 2026-04-23 13:51 | 46.58288 | 4.35314 | 36239 ft | 436 kts | 19° |
| 2026-04-23 13:51 | 46.64023 | 4.38223 | 36243 ft | 436 kts | 19° |
| 2026-04-23 13:52 | 46.69756 | 4.41132 | 36244 ft | 436 kts | 19° |
| 2026-04-23 13:52 | 46.75489 | 4.44056 | 36245 ft | 437 kts | 19° |
| 2026-04-23 13:53 | 46.81229 | 4.46988 | 36258 ft | 437 kts | 19° |
| 2026-04-23 13:53 | 46.86971 | 4.49922 | 36247 ft | 438 kts | 20° |
| 2026-04-23 13:54 | 46.92728 | 4.52866 | 36235 ft | 439 kts | 20° |
| 2026-04-23 13:54 | 46.98511 | 4.55840 | 36238 ft | 441 kts | 21° |
| 2026-04-23 13:55 | 47.04316 | 4.58833 | 36237 ft | 443 kts | 20° |
| 2026-04-23 13:55 | 47.10131 | 4.61836 | 36240 ft | 444 kts | 21° |
| 2026-04-23 13:56 | 47.15960 | 4.64852 | 36247 ft | 445 kts | 21° |
| 2026-04-23 13:56 | 47.21803 | 4.67878 | 36248 ft | 446 kts | 21° |
| 2026-04-23 13:57 | 47.27648 | 4.70922 | 36251 ft | 446 kts | 21° |
| 2026-04-23 13:57 | 47.33503 | 4.73983 | 36250 ft | 447 kts | 22° |
| 2026-04-23 13:58 | 47.39365 | 4.77040 | 36253 ft | 447 kts | 22° |
| 2026-04-23 13:58 | 47.45239 | 4.80114 | 36265 ft | 448 kts | 22° |
| 2026-04-23 13:59 | 47.50120 | 4.82675 | 36256 ft | 448 kts | 23° |
| 2026-04-23 13:59 | 47.56000 | 4.85764 | 36266 ft | 448 kts | 23° |
| 2026-04-23 14:00 | 47.61878 | 4.88865 | 36275 ft | 449 kts | 23° |
| 2026-04-23 14:00 | 47.67763 | 4.91973 | 36274 ft | 449 kts | 23° |
| 2026-04-23 14:01 | 47.73655 | 4.95088 | 36278 ft | 450 kts | 23° |
| 2026-04-23 14:01 | 47.79549 | 4.98214 | 36284 ft | 449 kts | 23° |
| 2026-04-23 14:02 | 47.85437 | 5.01356 | 36282 ft | 450 kts | 23° |
| 2026-04-23 14:02 | 47.91327 | 5.04498 | 36280 ft | 450 kts | 24° |
| 2026-04-23 14:03 | 47.97183 | 5.07599 | 36297 ft | 450 kts | 22° |
| 2026-04-23 14:03 | 48.03191 | 5.10317 | 36296 ft | 452 kts | 19° |
| 2026-04-23 14:04 | 48.09252 | 5.12795 | 36295 ft | 451 kts | 19° |
| 2026-04-23 14:04 | 48.15301 | 5.15329 | 36287 ft | 452 kts | 20° |
| 2026-04-23 14:05 | 48.21336 | 5.17963 | 36288 ft | 452 kts | 20° |
| 2026-04-23 14:05 | 48.27371 | 5.20640 | 36296 ft | 453 kts | 20° |
| 2026-04-23 14:06 | 48.33416 | 5.23315 | 36294 ft | 453 kts | 20° |
| 2026-04-23 14:06 | 48.39468 | 5.25965 | 36300 ft | 453 kts | 20° |
| 2026-04-23 14:07 | 48.45518 | 5.28620 | 36300 ft | 453 kts | 20° |
| 2026-04-23 14:07 | 48.54590 | 5.32632 | 36298 ft | 453 kts | 21° |
| 2026-04-23 14:08 | 48.60640 | 5.35320 | 36303 ft | 453 kts | 21° |
| 2026-04-23 14:08 | 48.66686 | 5.38011 | 36306 ft | 453 kts | 21° |
| 2026-04-23 14:09 | 48.72733 | 5.40710 | 36305 ft | 453 kts | 21° |
| 2026-04-23 14:09 | 48.78740 | 5.43391 | 36320 ft | 453 kts | 21° |
| 2026-04-23 14:10 | 48.84790 | 5.46093 | 36322 ft | 453 kts | 21° |
| 2026-04-23 14:10 | 48.90835 | 5.48801 | 36326 ft | 453 kts | 21° |
| 2026-04-23 14:11 | 48.96879 | 5.51538 | 36327 ft | 453 kts | 21° |
| 2026-04-23 14:11 | 49.02923 | 5.54266 | 36330 ft | 453 kts | 21° |
| 2026-04-23 14:12 | 49.08969 | 5.56985 | 36335 ft | 453 kts | 21° |
| 2026-04-23 14:12 | 49.15013 | 5.59716 | 36352 ft | 453 kts | 21° |
| 2026-04-23 14:13 | 49.21050 | 5.62470 | 36348 ft | 453 kts | 21° |
| 2026-04-23 14:13 | 49.26956 | 5.65635 | 36353 ft | 444 kts | 33° |
| 2026-04-23 14:14 | 49.32422 | 5.70048 | 36081 ft | 444 kts | 33° |
| 2026-04-23 14:14 | 49.35148 | 5.72264 | 35832 ft | 443 kts | 33° |
| 2026-04-23 14:14 | 49.37874 | 5.74482 | 35584 ft | 443 kts | 33° |
| 2026-04-23 14:15 | 49.40601 | 5.76693 | 35363 ft | 443 kts | 33° |
| 2026-04-23 14:15 | 49.43325 | 5.78903 | 35343 ft | 443 kts | 33° |
| 2026-04-23 14:15 | 49.48776 | 5.83347 | 35349 ft | 442 kts | 33° |
| 2026-04-23 14:16 | 49.54201 | 5.87772 | 35352 ft | 441 kts | 33° |
| 2026-04-23 14:16 | 49.59632 | 5.92213 | 34728 ft | 445 kts | 33° |
| 2026-04-23 14:17 | 49.62392 | 5.94488 | 33533 ft | 453 kts | 33° |
| 2026-04-23 14:17 | 49.65167 | 5.96776 | 32876 ft | 449 kts | 33° |
| 2026-04-23 14:17 | 49.67905 | 5.99022 | 32292 ft | 443 kts | 33° |
| 2026-04-23 14:17 | 49.70614 | 6.01250 | 31703 ft | 439 kts | 33° |
| 2026-04-23 14:18 | 49.73266 | 6.03537 | 30900 ft | 435 kts | 39° |
| 2026-04-23 14:18 | 49.75621 | 6.06487 | 29669 ft | 439 kts | 45° |
| 2026-04-23 14:18 | 49.77930 | 6.09611 | 28793 ft | 438 kts | 45° |
| 2026-04-23 14:18 | 49.80201 | 6.12696 | 28203 ft | 431 kts | 45° |
| 2026-04-23 14:19 | 49.82439 | 6.15742 | 27565 ft | 426 kts | 45° |
| 2026-04-23 14:19 | 49.84654 | 6.18765 | 26926 ft | 422 kts | 44° |
| 2026-04-23 14:19 | 49.86848 | 6.21757 | 26308 ft | 418 kts | 44° |
| 2026-04-23 14:19 | 49.89027 | 6.24727 | 25707 ft | 415 kts | 44° |
| 2026-04-23 14:20 | 49.91182 | 6.27665 | 25114 ft | 411 kts | 44° |
| 2026-04-23 14:20 | 49.93320 | 6.30584 | 24534 ft | 407 kts | 43° |
| 2026-04-23 14:20 | 49.95436 | 6.33479 | 23976 ft | 404 kts | 43° |
| 2026-04-23 14:20 | 49.97539 | 6.36355 | 23349 ft | 401 kts | 43° |
| 2026-04-23 14:21 | 49.99621 | 6.39208 | 22730 ft | 397 kts | 43° |
| 2026-04-23 14:21 | 50.01681 | 6.42036 | 22187 ft | 393 kts | 43° |
| 2026-04-23 14:21 | 50.03719 | 6.44842 | 21668 ft | 389 kts | 43° |
| 2026-04-23 14:21 | 50.05719 | 6.47596 | 20807 ft | 381 kts | 42° |
| 2026-04-23 14:22 | 50.07688 | 6.50306 | 19979 ft | 375 kts | 41° |
| 2026-04-23 14:22 | 50.09631 | 6.52984 | 19555 ft | 371 kts | 41° |
| 2026-04-23 14:22 | 50.11551 | 6.55637 | 19073 ft | 368 kts | 41° |
| 2026-04-23 14:22 | 50.13460 | 6.58279 | 18594 ft | 366 kts | 41° |
| 2026-04-23 14:23 | 50.15355 | 6.60903 | 18078 ft | 363 kts | 41° |
| 2026-04-23 14:23 | 50.17229 | 6.63509 | 17603 ft | 359 kts | 41° |
| 2026-04-23 14:23 | 50.19086 | 6.66089 | 17018 ft | 357 kts | 41° |
| 2026-04-23 14:23 | 50.20963 | 6.68690 | 16385 ft | 360 kts | 41° |
| 2026-04-23 14:24 | 50.22822 | 6.71272 | 15903 ft | 357 kts | 40° |
| 2026-04-23 14:24 | 50.24673 | 6.73844 | 15441 ft | 354 kts | 40° |
| 2026-04-23 14:24 | 50.26507 | 6.76393 | 14946 ft | 352 kts | 40° |
| 2026-04-23 14:24 | 50.28332 | 6.78930 | 14496 ft | 349 kts | 40° |
| 2026-04-23 14:25 | 50.30140 | 6.81453 | 14002 ft | 348 kts | 40° |
| 2026-04-23 14:25 | 50.31935 | 6.83966 | 13532 ft | 344 kts | 40° |
| 2026-04-23 14:25 | 50.33705 | 6.86449 | 13078 ft | 340 kts | 40° |
| 2026-04-23 14:25 | 50.35455 | 6.88901 | 12629 ft | 336 kts | 40° |
| 2026-04-23 14:26 | 50.37161 | 6.91290 | 12178 ft | 332 kts | 40° |
| 2026-04-23 14:26 | 50.38869 | 6.93688 | 11726 ft | 325 kts | 41° |
| 2026-04-23 14:26 | 50.40488 | 6.95981 | 11237 ft | 302 kts | 41° |
| 2026-04-23 14:26 | 50.42001 | 6.98151 | 10811 ft | 293 kts | 41° |
| 2026-04-23 14:27 | 50.43494 | 7.00316 | 10409 ft | 292 kts | 41° |
| 2026-04-23 14:27 | 50.44970 | 7.02483 | 10098 ft | 287 kts | 42° |
| 2026-04-23 14:27 | 50.46398 | 7.04603 | 9917 ft | 279 kts | 42° |
| 2026-04-23 14:27 | 50.47803 | 7.06709 | 9564 ft | 279 kts | 42° |
| 2026-04-23 14:28 | 50.49189 | 7.08821 | 9317 ft | 276 kts | 43° |
| 2026-04-23 14:28 | 50.50547 | 7.10942 | 9119 ft | 274 kts | 44° |
| 2026-04-23 14:28 | 50.51890 | 7.13094 | 8721 ft | 277 kts | 44° |
| 2026-04-23 14:28 | 50.53247 | 7.15278 | 8169 ft | 280 kts | 43° |
| 2026-04-23 14:29 | 50.54623 | 7.17394 | 7679 ft | 270 kts | 43° |
| 2026-04-23 14:29 | 50.55958 | 7.19430 | 6863 ft | 269 kts | 42° |
| 2026-04-23 14:29 | 50.57322 | 7.21511 | 6316 ft | 274 kts | 43° |
| 2026-04-23 14:29 | 50.58665 | 7.23606 | 5988 ft | 269 kts | 43° |
| 2026-04-23 14:30 | 50.59954 | 7.25672 | 5786 ft | 261 kts | 44° |
| 2026-04-23 14:30 | 50.61197 | 7.27638 | 5358 ft | 245 kts | 41° |
| 2026-04-23 14:30 | 50.62413 | 7.29385 | 4815 ft | 228 kts | 39° |
| 2026-04-23 14:30 | 50.63605 | 7.30995 | 4451 ft | 226 kts | 37° |
| 2026-04-23 14:31 | 50.64832 | 7.32540 | 4082 ft | 225 kts | 34° |
| 2026-04-23 14:31 | 50.66099 | 7.34000 | 3701 ft | 226 kts | 32° |
| 2026-04-23 14:31 | 50.67401 | 7.35391 | 3323 ft | 226 kts | 31° |
| 2026-04-23 14:31 | 50.68721 | 7.36692 | 3088 ft | 219 kts | 24° |
| 2026-04-23 14:32 | 50.70138 | 7.37101 | 3055 ft | 203 kts | 349° |
| 2026-04-23 14:32 | 50.71326 | 7.36075 | 2912 ft | 192 kts | 311° |
| 2026-04-23 14:32 | 50.72190 | 7.34516 | 2876 ft | 184 kts | 320° |
| 2026-04-23 14:32 | 50.73277 | 7.33423 | 2881 ft | 184 kts | 334° |
| 2026-04-23 14:33 | 50.74414 | 7.32496 | 2922 ft | 183 kts | 327° |
| 2026-04-23 14:33 | 50.75383 | 7.31205 | 2791 ft | 183 kts | 314° |
| 2026-04-23 14:33 | 50.76234 | 7.29774 | 2808 ft | 171 kts | 314° |
| 2026-04-23 14:33 | 50.77074 | 7.28536 | 2684 ft | 160 kts | 320° |
| 2026-04-23 14:34 | 50.77973 | 7.27483 | 2310 ft | 162 kts | 325° |
| 2026-04-23 14:34 | 50.78822 | 7.26488 | 2185 ft | 144 kts | 319° |
| 2026-04-23 14:34 | 50.79493 | 7.25360 | 1979 ft | 137 kts | 312° |
| 2026-04-23 14:34 | 50.80121 | 7.24261 | 1805 ft | 132 kts | 317° |
| 2026-04-23 14:35 | 50.80831 | 7.23347 | 1578 ft | 130 kts | 323° |
| 2026-04-23 14:35 | 50.81525 | 7.22430 | 1353 ft | 130 kts | 317° |
| 2026-04-23 14:35 | 50.82177 | 7.21438 | 1142 ft | 132 kts | 315° |
| 2026-04-23 14:35 | 50.82832 | 7.20443 | 1006 ft | 132 kts | 317° |
| 2026-04-23 14:36 | 50.83526 | 7.19506 | 854 ft | 129 kts | 318° |
| 2026-04-23 14:36 | 50.84187 | 7.18534 | 701 ft | 129 kts | 315° |
| 2026-04-23 14:36 | 50.84849 | 7.17552 | 526 ft | 130 kts | 318° |
| 2026-04-23 14:36 | 50.85512 | 7.16591 | 371 ft | 129 kts | 317° |
| 2026-04-23 14:37 | 50.86140 | 7.15668 | 296 ft | 111 kts | 317° |
| 2026-04-23 14:37 | 50.86588 | 7.15018 | 275 ft | 63 kts | 317° |
| 2026-04-23 14:37 | 50.86804 | 7.14695 | 265 ft | 35 kts | 308° |
| 2026-04-23 14:37 | 50.86885 | 7.14350 | 259 ft | 32 kts | 280° |
| 2026-04-23 14:38 | 50.86940 | 7.14061 | 253 ft | 26 kts | 308° |
| 2026-04-23 14:38 | 50.87079 | 7.13854 | 243 ft | 28 kts | 317° |
| 2026-04-23 14:38 | 50.87224 | 7.13644 | 237 ft | 28 kts | 317° |
| 2026-04-23 14:38 | 50.87369 | 7.13431 | 232 ft | 28 kts | 318° |
| 2026-04-23 14:39 | 50.87512 | 7.13228 | 233 ft | 27 kts | 317° |
| 2026-04-23 14:39 | 50.87644 | 7.13035 | 233 ft | 25 kts | 318° |
| 2026-04-23 14:39 | 50.87765 | 7.12861 | 232 ft | 12 kts | 316° |
| 2026-04-23 14:39 | 50.87788 | 7.12726 | 232 ft | 14 kts | 271° |
| 2026-04-23 14:40 | 50.87833 | 7.12624 | 232 ft | 7 kts | 335° |
| 2026-04-23 14:40 | 50.87875 | 7.12600 | 232 ft | 4 kts | 312° |
| 2026-04-23 14:40 | 50.87861 | 7.12576 | 232 ft | 4 kts | 220° |
| 2026-04-23 14:40 | 50.87828 | 7.12549 | 232 ft | 5 kts | 228° |
| 2026-04-23 14:41 | 50.87826 | 7.12500 | 232 ft | 5 kts | 277° |
| 2026-04-23 14:41 | 50.87834 | 7.12455 | 235 ft | 2 kts | 287° |
| 2026-04-23 14:41 | 50.87836 | 7.12445 | 234 ft | 0 kts | 290° |